sensor_id;sensor_type;location;lat;lon;timestamp;temperature;humidity
66373;SHT30;53168;51.146;17.120;2023-07-29T00:01:21;17.95;73.80
66373;SHT30;53168;51.146;17.120;2023-07-29T00:03:55;17.94;73.80
66373;SHT30;53168;51.146;17.120;2023-07-29T00:06:29;17.94;73.80
66373;SHT30;53168;51.146;17.120;2023-07-29T00:09:03;17.95;73.81
66373;SHT30;53168;51.146;17.120;2023-07-29T00:11:37;17.92;73.95
66373;SHT30;53168;51.146;17.120;2023-07-29T00:14:11;17.86;74.11
66373;SHT30;53168;51.146;17.120;2023-07-29T00:16:44;17.86;74.13
66373;SHT30;53168;51.146;17.120;2023-07-29T00:19:18;17.84;74.18
66373;SHT30;53168;51.146;17.120;2023-07-29T00:22:23;17.81;74.31
66373;SHT30;53168;51.146;17.120;2023-07-29T00:24:56;17.80;74.47
66373;SHT30;53168;51.146;17.120;2023-07-29T00:27:30;17.78;74.46
66373;SHT30;53168;51.146;17.120;2023-07-29T00:30:05;17.77;74.45
66373;SHT30;53168;51.146;17.120;2023-07-29T00:32:40;17.75;74.49
66373;SHT30;53168;51.146;17.120;2023-07-29T00:35:16;17.71;74.52
66373;SHT30;53168;51.146;17.120;2023-07-29T00:37:49;17.68;74.58
66373;SHT30;53168;51.146;17.120;2023-07-29T00:40:23;17.67;74.61
66373;SHT30;53168;51.146;17.120;2023-07-29T00:42:59;17.67;74.70
66373;SHT30;53168;51.146;17.120;2023-07-29T00:45:34;17.64;74.71
66373;SHT30;53168;51.146;17.120;2023-07-29T00:48:10;17.60;74.84
66373;SHT30;53168;51.146;17.120;2023-07-29T00:50:44;17.57;74.90
66373;SHT30;53168;51.146;17.120;2023-07-29T00:53:18;17.54;75.00
66373;SHT30;53168;51.146;17.120;2023-07-29T00:55:53;17.48;75.16
66373;SHT30;53168;51.146;17.120;2023-07-29T00:58:27;17.44;75.30
66373;SHT30;53168;51.146;17.120;2023-07-29T01:01:01;17.43;75.34
66373;SHT30;53168;51.146;17.120;2023-07-29T01:03:36;17.41;75.39
66373;SHT30;53168;51.146;17.120;2023-07-29T01:06:19;17.35;75.48
66373;SHT30;53168;51.146;17.120;2023-07-29T01:09:04;17.32;75.66
66373;SHT30;53168;51.146;17.120;2023-07-29T01:11:48;17.29;75.71
66373;SHT30;53168;51.146;17.120;2023-07-29T01:14:38;17.27;75.77
66373;SHT30;53168;51.146;17.120;2023-07-29T01:17:29;17.25;75.76
66373;SHT30;53168;51.146;17.120;2023-07-29T01:20:11;17.25;75.79
66373;SHT30;53168;51.146;17.120;2023-07-29T01:22:46;17.25;75.80
66373;SHT30;53168;51.146;17.120;2023-07-29T01:25:20;17.23;75.80
66373;SHT30;53168;51.146;17.120;2023-07-29T01:27:54;17.20;75.84
66373;SHT30;53168;51.146;17.120;2023-07-29T01:30:33;17.17;75.97
66373;SHT30;53168;51.146;17.120;2023-07-29T01:33:17;17.16;76.09
66373;SHT30;53168;51.146;17.120;2023-07-29T01:36:03;17.15;76.17
66373;SHT30;53168;51.146;17.120;2023-07-29T01:38:45;17.11;76.26
66373;SHT30;53168;51.146;17.120;2023-07-29T01:41:25;17.10;76.34
66373;SHT30;53168;51.146;17.120;2023-07-29T01:44:01;17.06;76.47
66373;SHT30;53168;51.146;17.120;2023-07-29T01:46:36;17.02;76.66
66373;SHT30;53168;51.146;17.120;2023-07-29T01:49:10;16.97;76.71
66373;SHT30;53168;51.146;17.120;2023-07-29T01:51:44;16.95;76.76
66373;SHT30;53168;51.146;17.120;2023-07-29T01:54:18;16.91;76.80
66373;SHT30;53168;51.146;17.120;2023-07-29T01:56:51;16.88;76.90
66373;SHT30;53168;51.146;17.120;2023-07-29T01:59:25;16.86;76.93
66373;SHT30;53168;51.146;17.120;2023-07-29T02:01:59;16.84;76.95
66373;SHT30;53168;51.146;17.120;2023-07-29T02:04:32;16.85;76.96
66373;SHT30;53168;51.146;17.120;2023-07-29T02:07:06;16.83;76.96
66373;SHT30;53168;51.146;17.120;2023-07-29T02:09:40;16.81;77.01
66373;SHT30;53168;51.146;17.120;2023-07-29T02:12:14;16.80;77.20
66373;SHT30;53168;51.146;17.120;2023-07-29T02:14:47;16.78;77.29
66373;SHT30;53168;51.146;17.120;2023-07-29T02:17:21;16.79;77.26
66373;SHT30;53168;51.146;17.120;2023-07-29T02:19:55;16.80;77.20
66373;SHT30;53168;51.146;17.120;2023-07-29T02:22:29;16.81;77.21
66373;SHT30;53168;51.146;17.120;2023-07-29T02:25:04;16.83;77.32
66373;SHT30;53168;51.146;17.120;2023-07-29T02:27:38;16.83;77.40
66373;SHT30;53168;51.146;17.120;2023-07-29T02:30:13;16.83;77.39
66373;SHT30;53168;51.146;17.120;2023-07-29T02:32:46;16.83;77.44
66373;SHT30;53168;51.146;17.120;2023-07-29T02:35:20;16.81;77.50
66373;SHT30;53168;51.146;17.120;2023-07-29T02:37:54;16.79;77.50
66373;SHT30;53168;51.146;17.120;2023-07-29T02:40:29;16.80;77.45
66373;SHT30;53168;51.146;17.120;2023-07-29T02:43:03;16.78;77.38
66373;SHT30;53168;51.146;17.120;2023-07-29T02:45:38;16.75;77.43
66373;SHT30;53168;51.146;17.120;2023-07-29T02:48:13;16.73;77.42
66373;SHT30;53168;51.146;17.120;2023-07-29T02:50:47;16.69;77.58
66373;SHT30;53168;51.146;17.120;2023-07-29T02:53:21;16.65;77.77
66373;SHT30;53168;51.146;17.120;2023-07-29T02:55:56;16.63;77.80
66373;SHT30;53168;51.146;17.120;2023-07-29T02:58:29;16.62;77.82
66373;SHT30;53168;51.146;17.120;2023-07-29T03:01:04;16.62;77.90
66373;SHT30;53168;51.146;17.120;2023-07-29T03:03:39;16.61;77.93
66373;SHT30;53168;51.146;17.120;2023-07-29T03:06:14;16.59;77.98
66373;SHT30;53168;51.146;17.120;2023-07-29T03:08:47;16.57;78.02
66373;SHT30;53168;51.146;17.120;2023-07-29T03:11:21;16.55;78.00
66373;SHT30;53168;51.146;17.120;2023-07-29T03:13:55;16.57;78.00
66373;SHT30;53168;51.146;17.120;2023-07-29T03:16:30;16.56;78.01
66373;SHT30;53168;51.146;17.120;2023-07-29T03:19:04;16.57;78.00
66373;SHT30;53168;51.146;17.120;2023-07-29T03:21:37;16.57;77.97
66373;SHT30;53168;51.146;17.120;2023-07-29T03:24:11;16.56;78.01
66373;SHT30;53168;51.146;17.120;2023-07-29T03:26:45;16.56;78.16
66373;SHT30;53168;51.146;17.120;2023-07-29T03:29:19;16.57;78.15
66373;SHT30;53168;51.146;17.120;2023-07-29T03:31:53;16.58;78.10
66373;SHT30;53168;51.146;17.120;2023-07-29T03:34:26;16.57;78.10
66373;SHT30;53168;51.146;17.120;2023-07-29T03:37:00;16.60;78.17
66373;SHT30;53168;51.146;17.120;2023-07-29T03:39:49;16.62;78.22
66373;SHT30;53168;51.146;17.120;2023-07-29T03:42:23;16.63;78.30
66373;SHT30;53168;51.146;17.120;2023-07-29T03:44:57;16.66;78.30
66373;SHT30;53168;51.146;17.120;2023-07-29T03:47:31;16.68;78.31
66373;SHT30;53168;51.146;17.120;2023-07-29T03:50:06;16.70;78.40
66373;SHT30;53168;51.146;17.120;2023-07-29T03:52:40;16.75;78.36
66373;SHT30;53168;51.146;17.120;2023-07-29T03:55:14;16.77;78.30
66373;SHT30;53168;51.146;17.120;2023-07-29T03:57:48;16.82;78.27
66373;SHT30;53168;51.146;17.120;2023-07-29T04:00:22;16.85;78.20
66373;SHT30;53168;51.146;17.120;2023-07-29T04:02:55;16.89;78.20
66373;SHT30;53168;51.146;17.120;2023-07-29T04:05:29;16.94;78.20
66373;SHT30;53168;51.146;17.120;2023-07-29T04:08:03;16.98;78.19
66373;SHT30;53168;51.146;17.120;2023-07-29T04:10:38;16.99;78.19
66373;SHT30;53168;51.146;17.120;2023-07-29T04:13:12;17.04;78.18
66373;SHT30;53168;51.146;17.120;2023-07-29T04:15:46;17.10;78.12
66373;SHT30;53168;51.146;17.120;2023-07-29T04:18:19;17.13;78.09
66373;SHT30;53168;51.146;17.120;2023-07-29T04:20:54;17.16;78.05
66373;SHT30;53168;51.146;17.120;2023-07-29T04:23:28;17.16;77.99
66373;SHT30;53168;51.146;17.120;2023-07-29T04:26:01;17.16;78.01
66373;SHT30;53168;51.146;17.120;2023-07-29T04:28:35;17.18;78.00
66373;SHT30;53168;51.146;17.120;2023-07-29T04:31:08;17.22;78.02
66373;SHT30;53168;51.146;17.120;2023-07-29T04:33:42;17.29;78.00
66373;SHT30;53168;51.146;17.120;2023-07-29T04:36:16;17.39;77.90
66373;SHT30;53168;51.146;17.120;2023-07-29T04:38:49;17.51;77.79
66373;SHT30;53168;51.146;17.120;2023-07-29T04:41:23;17.61;77.74
66373;SHT30;53168;51.146;17.120;2023-07-29T04:43:57;17.76;77.66
66373;SHT30;53168;51.146;17.120;2023-07-29T04:46:31;17.90;77.47
66373;SHT30;53168;51.146;17.120;2023-07-29T04:49:05;18.00;77.32
66373;SHT30;53168;51.146;17.120;2023-07-29T04:51:39;18.07;77.23
66373;SHT30;53168;51.146;17.120;2023-07-29T04:54:13;18.13;77.09
66373;SHT30;53168;51.146;17.120;2023-07-29T04:56:47;18.22;76.90
66373;SHT30;53168;51.146;17.120;2023-07-29T04:59:21;18.32;76.79
66373;SHT30;53168;51.146;17.120;2023-07-29T05:01:55;18.37;76.70
66373;SHT30;53168;51.146;17.120;2023-07-29T05:04:28;18.39;76.71
66373;SHT30;53168;51.146;17.120;2023-07-29T05:07:02;18.40;76.73
66373;SHT30;53168;51.146;17.120;2023-07-29T05:09:36;18.46;76.76
66373;SHT30;53168;51.146;17.120;2023-07-29T05:12:11;18.54;76.64
66373;SHT30;53168;51.146;17.120;2023-07-29T05:14:44;18.63;76.53
66373;SHT30;53168;51.146;17.120;2023-07-29T05:17:18;18.75;76.45
66373;SHT30;53168;51.146;17.120;2023-07-29T05:19:52;18.89;76.30
66373;SHT30;53168;51.146;17.120;2023-07-29T05:22:26;19.03;76.14
66373;SHT30;53168;51.146;17.120;2023-07-29T05:25:00;19.15;76.07
66373;SHT30;53168;51.146;17.120;2023-07-29T05:27:34;19.28;75.96
66373;SHT30;53168;51.146;17.120;2023-07-29T05:30:09;19.45;75.86
66373;SHT30;53168;51.146;17.120;2023-07-29T05:32:43;19.63;75.65
66373;SHT30;53168;51.146;17.120;2023-07-29T05:35:17;19.82;75.57
66373;SHT30;53168;51.146;17.120;2023-07-29T05:37:50;19.99;75.40
66373;SHT30;53168;51.146;17.120;2023-07-29T05:40:24;20.12;75.22
66373;SHT30;53168;51.146;17.120;2023-07-29T05:42:58;20.21;75.01
66373;SHT30;53168;51.146;17.120;2023-07-29T05:45:32;20.37;74.87
66373;SHT30;53168;51.146;17.120;2023-07-29T05:48:07;20.53;74.58
66373;SHT30;53168;51.146;17.120;2023-07-29T05:50:40;20.67;74.34
66373;SHT30;53168;51.146;17.120;2023-07-29T05:53:15;20.80;74.31
66373;SHT30;53168;51.146;17.120;2023-07-29T05:55:49;20.90;74.12
66373;SHT30;53168;51.146;17.120;2023-07-29T05:58:22;20.99;73.94
66373;SHT30;53168;51.146;17.120;2023-07-29T06:00:56;21.02;73.53
66373;SHT30;53168;51.146;17.120;2023-07-29T06:03:30;21.04;73.58
66373;SHT30;53168;51.146;17.120;2023-07-29T06:06:05;21.10;73.43
66373;SHT30;53168;51.146;17.120;2023-07-29T06:08:39;21.20;73.47
66373;SHT30;53168;51.146;17.120;2023-07-29T06:11:13;21.29;73.41
66373;SHT30;53168;51.146;17.120;2023-07-29T06:13:49;21.44;73.37
66373;SHT30;53168;51.146;17.120;2023-07-29T06:16:23;21.61;73.07
66373;SHT30;53168;51.146;17.120;2023-07-29T06:18:58;21.74;72.63
66373;SHT30;53168;51.146;17.120;2023-07-29T06:21:33;21.83;72.39
66373;SHT30;53168;51.146;17.120;2023-07-29T06:24:07;21.94;72.16
66373;SHT30;53168;51.146;17.120;2023-07-29T06:26:41;22.07;71.68
66373;SHT30;53168;51.146;17.120;2023-07-29T06:29:15;22.23;71.47
66373;SHT30;53168;51.146;17.120;2023-07-29T06:31:48;22.39;71.09
66373;SHT30;53168;51.146;17.120;2023-07-29T06:34:23;22.51;70.39
66373;SHT30;53168;51.146;17.120;2023-07-29T06:36:59;22.63;70.43
66373;SHT30;53168;51.146;17.120;2023-07-29T06:39:35;22.75;70.03
66373;SHT30;53168;51.146;17.120;2023-07-29T06:42:10;22.86;69.85
66373;SHT30;53168;51.146;17.120;2023-07-29T06:44:46;22.98;69.55
66373;SHT30;53168;51.146;17.120;2023-07-29T06:47:20;23.07;69.31
66373;SHT30;53168;51.146;17.120;2023-07-29T06:49:55;23.13;69.05
66373;SHT30;53168;51.146;17.120;2023-07-29T06:52:29;23.24;69.18
66373;SHT30;53168;51.146;17.120;2023-07-29T06:55:06;23.34;68.87
66373;SHT30;53168;51.146;17.120;2023-07-29T06:57:41;23.43;68.40
66373;SHT30;53168;51.146;17.120;2023-07-29T07:00:16;23.53;68.52
66373;SHT30;53168;51.146;17.120;2023-07-29T07:02:50;23.66;68.26
66373;SHT30;53168;51.146;17.120;2023-07-29T07:05:46;23.77;67.87
66373;SHT30;53168;51.146;17.120;2023-07-29T07:08:29;23.88;67.06
66373;SHT30;53168;51.146;17.120;2023-07-29T07:11:12;23.88;66.89
66373;SHT30;53168;51.146;17.120;2023-07-29T07:13:48;23.96;67.19
66373;SHT30;53168;51.146;17.120;2023-07-29T07:16:22;24.08;66.89
66373;SHT30;53168;51.146;17.120;2023-07-29T07:18:56;24.17;66.47
66373;SHT30;53168;51.146;17.120;2023-07-29T07:21:30;24.25;66.32
66373;SHT30;53168;51.146;17.120;2023-07-29T07:24:04;24.32;65.95
66373;SHT30;53168;51.146;17.120;2023-07-29T07:26:38;24.36;65.57
66373;SHT30;53168;51.146;17.120;2023-07-29T07:29:12;24.38;65.43
66373;SHT30;53168;51.146;17.120;2023-07-29T07:31:51;24.40;65.12
66373;SHT30;53168;51.146;17.120;2023-07-29T07:34:26;24.44;65.26
66373;SHT30;53168;51.146;17.120;2023-07-29T07:37:00;24.54;65.13
66373;SHT30;53168;51.146;17.120;2023-07-29T07:39:35;24.61;64.70
66373;SHT30;53168;51.146;17.120;2023-07-29T07:42:08;24.69;64.50
66373;SHT30;53168;51.146;17.120;2023-07-29T07:44:43;24.77;64.48
66373;SHT30;53168;51.146;17.120;2023-07-29T07:47:17;24.87;64.21
66373;SHT30;53168;51.146;17.120;2023-07-29T07:49:50;24.97;63.90
66373;SHT30;53168;51.146;17.120;2023-07-29T07:52:24;25.03;63.70
66373;SHT30;53168;51.146;17.120;2023-07-29T07:55:00;25.14;63.34
66373;SHT30;53168;51.146;17.120;2023-07-29T07:57:37;25.24;63.15
66373;SHT30;53168;51.146;17.120;2023-07-29T08:00:15;25.30;62.64
66373;SHT30;53168;51.146;17.120;2023-07-29T08:02:50;25.31;62.61
66373;SHT30;53168;51.146;17.120;2023-07-29T08:05:25;25.31;62.67
66373;SHT30;53168;51.146;17.120;2023-07-29T08:07:58;25.43;62.61
66373;SHT30;53168;51.146;17.120;2023-07-29T08:10:32;25.56;62.29
66373;SHT30;53168;51.146;17.120;2023-07-29T08:13:06;25.67;62.30
66373;SHT30;53168;51.146;17.120;2023-07-29T08:15:40;25.83;62.05
66373;SHT30;53168;51.146;17.120;2023-07-29T08:18:18;25.99;61.49
66373;SHT30;53168;51.146;17.120;2023-07-29T08:20:57;26.10;61.40
66373;SHT30;53168;51.146;17.120;2023-07-29T08:23:36;26.21;61.24
66373;SHT30;53168;51.146;17.120;2023-07-29T08:26:10;26.08;61.09
66373;SHT30;53168;51.146;17.120;2023-07-29T08:28:48;26.00;60.94
66373;SHT30;53168;51.146;17.120;2023-07-29T08:35:43;26.52;60.10
66373;SHT30;53168;51.146;17.120;2023-07-29T08:38:32;26.64;59.42
66373;SHT30;53168;51.146;17.120;2023-07-29T08:41:25;26.46;59.23
66373;SHT30;53168;51.146;17.120;2023-07-29T08:44:24;26.40;59.39
66373;SHT30;53168;51.146;17.120;2023-07-29T08:50:25;26.19;59.38
66373;SHT30;53168;51.146;17.120;2023-07-29T08:53:02;26.20;59.17
66373;SHT30;53168;51.146;17.120;2023-07-29T08:55:38;26.20;59.04
66373;SHT30;53168;51.146;17.120;2023-07-29T08:58:12;26.45;58.94
66373;SHT30;53168;51.146;17.120;2023-07-29T09:00:48;26.78;58.67
66373;SHT30;53168;51.146;17.120;2023-07-29T09:03:22;26.97;58.62
66373;SHT30;53168;51.146;17.120;2023-07-29T09:05:59;27.08;57.28
66373;SHT30;53168;51.146;17.120;2023-07-29T09:08:36;27.06;57.33
66373;SHT30;53168;51.146;17.120;2023-07-29T09:11:12;27.18;57.22
66373;SHT30;53168;51.146;17.120;2023-07-29T09:13:48;27.43;56.96
66373;SHT30;53168;51.146;17.120;2023-07-29T09:16:24;27.66;56.63
66373;SHT30;53168;51.146;17.120;2023-07-29T09:19:02;27.75;56.17
66373;SHT30;53168;51.146;17.120;2023-07-29T09:21:40;27.85;56.07
66373;SHT30;53168;51.146;17.120;2023-07-29T09:24:17;28.05;55.86
66373;SHT30;53168;51.146;17.120;2023-07-29T09:26:53;28.27;55.83
66373;SHT30;53168;51.146;17.120;2023-07-29T09:29:30;28.38;55.28
66373;SHT30;53168;51.146;17.120;2023-07-29T09:32:21;28.54;55.19
66373;SHT30;53168;51.146;17.120;2023-07-29T09:34:56;28.74;54.34
66373;SHT30;53168;51.146;17.120;2023-07-29T09:37:31;28.72;53.95
66373;SHT30;53168;51.146;17.120;2023-07-29T09:40:12;28.70;54.35
66373;SHT30;53168;51.146;17.120;2023-07-29T09:42:52;28.55;54.42
66373;SHT30;53168;51.146;17.120;2023-07-29T09:45:28;28.26;54.17
66373;SHT30;53168;51.146;17.120;2023-07-29T09:48:03;28.21;54.44
66373;SHT30;53168;51.146;17.120;2023-07-29T09:50:42;28.33;53.90
66373;SHT30;53168;51.146;17.120;2023-07-29T09:53:17;28.39;53.54
66373;SHT30;53168;51.146;17.120;2023-07-29T09:55:54;28.54;53.07
66373;SHT30;53168;51.146;17.120;2023-07-29T09:58:31;28.59;53.03
66373;SHT30;53168;51.146;17.120;2023-07-29T10:01:09;28.73;53.13
66373;SHT30;53168;51.146;17.120;2023-07-29T10:03:45;28.63;53.07
66373;SHT30;53168;51.146;17.120;2023-07-29T10:06:21;28.43;53.21
66373;SHT30;53168;51.146;17.120;2023-07-29T10:08:57;28.52;53.22
66373;SHT30;53168;51.146;17.120;2023-07-29T10:11:32;28.66;52.88
66373;SHT30;53168;51.146;17.120;2023-07-29T10:14:09;28.91;52.63
66373;SHT30;53168;51.146;17.120;2023-07-29T10:16:45;29.10;52.09
66373;SHT30;53168;51.146;17.120;2023-07-29T10:19:20;29.25;51.79
66373;SHT30;53168;51.146;17.120;2023-07-29T10:21:59;29.39;51.52
66373;SHT30;53168;51.146;17.120;2023-07-29T10:24:38;29.41;51.40
66373;SHT30;53168;51.146;17.120;2023-07-29T10:27:18;29.58;51.01
66373;SHT30;53168;51.146;17.120;2023-07-29T10:29:57;29.82;50.36
66373;SHT30;53168;51.146;17.120;2023-07-29T10:32:38;30.11;50.22
66373;SHT30;53168;51.146;17.120;2023-07-29T10:38:46;29.83;50.00
66373;SHT30;53168;51.146;17.120;2023-07-29T10:41:59;29.59;49.70
66373;SHT30;53168;51.146;17.120;2023-07-29T10:45:05;29.17;49.54
66373;SHT30;53168;51.146;17.120;2023-07-29T10:51:46;28.86;49.73
66373;SHT30;53168;51.146;17.120;2023-07-29T10:54:24;29.12;49.35
66373;SHT30;53168;51.146;17.120;2023-07-29T10:57:06;29.39;49.26
66373;SHT30;53168;51.146;17.120;2023-07-29T11:02:41;29.98;48.66
66373;SHT30;53168;51.146;17.120;2023-07-29T11:05:26;30.13;48.22
66373;SHT30;53168;51.146;17.120;2023-07-29T11:08:26;30.22;48.51
66373;SHT30;53168;51.146;17.120;2023-07-29T11:11:04;30.37;48.17
66373;SHT30;53168;51.146;17.120;2023-07-29T11:13:40;30.39;47.86
66373;SHT30;53168;51.146;17.120;2023-07-29T11:16:17;30.43;48.11
66373;SHT30;53168;51.146;17.120;2023-07-29T11:18:55;30.42;47.82
66373;SHT30;53168;51.146;17.120;2023-07-29T11:21:43;30.35;47.87
66373;SHT30;53168;51.146;17.120;2023-07-29T11:24:20;30.57;47.77
66373;SHT30;53168;51.146;17.120;2023-07-29T11:26:55;30.77;46.92
66373;SHT30;53168;51.146;17.120;2023-07-29T11:29:29;30.88;46.49
66373;SHT30;53168;51.146;17.120;2023-07-29T11:32:04;31.03;46.68
66373;SHT30;53168;51.146;17.120;2023-07-29T11:34:46;30.99;46.44
66373;SHT30;53168;51.146;17.120;2023-07-29T11:39:10;31.49;45.71
66373;SHT30;53168;51.146;17.120;2023-07-29T11:46:53;31.31;44.78
66373;SHT30;53168;51.146;17.120;2023-07-29T12:00:37;31.78;43.58
66373;SHT30;53168;51.146;17.120;2023-07-29T12:03:12;31.92;43.10
66373;SHT30;53168;51.146;17.120;2023-07-29T12:05:49;31.87;43.55
66373;SHT30;53168;51.146;17.120;2023-07-29T12:08:24;31.82;43.59
66373;SHT30;53168;51.146;17.120;2023-07-29T12:25:39;32.52;40.95
66373;SHT30;53168;51.146;17.120;2023-07-29T12:28:14;32.54;40.45
66373;SHT30;53168;51.146;17.120;2023-07-29T12:30:50;32.64;40.35
66373;SHT30;53168;51.146;17.120;2023-07-29T12:33:33;32.48;39.81
66373;SHT30;53168;51.146;17.120;2023-07-29T12:36:10;32.12;40.30
66373;SHT30;53168;51.146;17.120;2023-07-29T12:38:46;31.63;40.48
66373;SHT30;53168;51.146;17.120;2023-07-29T12:41:25;30.99;40.76
66373;SHT30;53168;51.146;17.120;2023-07-29T12:44:01;30.41;41.36
66373;SHT30;53168;51.146;17.120;2023-07-29T12:46:36;30.00;41.75
66373;SHT30;53168;51.146;17.120;2023-07-29T12:49:12;29.66;41.81
66373;SHT30;53168;51.146;17.120;2023-07-29T12:51:47;29.38;42.16
66373;SHT30;53168;51.146;17.120;2023-07-29T12:54:21;29.32;42.33
66373;SHT30;53168;51.146;17.120;2023-07-29T12:56:57;29.47;42.55
66373;SHT30;53168;51.146;17.120;2023-07-29T12:59:32;29.75;42.63
66373;SHT30;53168;51.146;17.120;2023-07-29T13:02:12;29.90;42.67
66373;SHT30;53168;51.146;17.120;2023-07-29T13:04:46;29.90;42.50
66373;SHT30;53168;51.146;17.120;2023-07-29T13:07:20;29.84;42.48
66373;SHT30;53168;51.146;17.120;2023-07-29T13:09:54;29.85;42.99
66373;SHT30;53168;51.146;17.120;2023-07-29T13:12:28;29.88;43.02
66373;SHT30;53168;51.146;17.120;2023-07-29T13:21:49;29.65;43.04
66373;SHT30;53168;51.146;17.120;2023-07-29T13:25:03;29.74;43.04
66373;SHT30;53168;51.146;17.120;2023-07-29T13:27:38;29.97;42.46
66373;SHT30;53168;51.146;17.120;2023-07-29T13:30:12;30.26;42.37
66373;SHT30;53168;51.146;17.120;2023-07-29T13:32:46;30.46;42.04
66373;SHT30;53168;51.146;17.120;2023-07-29T13:35:20;30.75;42.09
66373;SHT30;53168;51.146;17.120;2023-07-29T13:37:54;30.99;42.01
66373;SHT30;53168;51.146;17.120;2023-07-29T13:40:31;31.16;41.48
66373;SHT30;53168;51.146;17.120;2023-07-29T13:43:13;31.18;41.36
66373;SHT30;53168;51.146;17.120;2023-07-29T13:46:01;31.03;40.84
66373;SHT30;53168;51.146;17.120;2023-07-29T13:48:45;30.82;41.47
66373;SHT30;53168;51.146;17.120;2023-07-29T13:51:38;30.80;41.37
66373;SHT30;53168;51.146;17.120;2023-07-29T13:54:22;31.11;40.54
66373;SHT30;53168;51.146;17.120;2023-07-29T13:57:06;31.18;40.92
66373;SHT30;53168;51.146;17.120;2023-07-29T13:59:51;31.53;40.90
66373;SHT30;53168;51.146;17.120;2023-07-29T14:03:06;31.72;40.23
66373;SHT30;53168;51.146;17.120;2023-07-29T14:05:51;31.44;40.35
66373;SHT30;53168;51.146;17.120;2023-07-29T14:08:42;31.34;40.25
66373;SHT30;53168;51.146;17.120;2023-07-29T14:14:46;31.87;39.72
66373;SHT30;53168;51.146;17.120;2023-07-29T14:17:22;31.54;40.13
66373;SHT30;53168;51.146;17.120;2023-07-29T14:20:04;31.02;40.68
66373;SHT30;53168;51.146;17.120;2023-07-29T14:22:42;30.40;41.29
66373;SHT30;53168;51.146;17.120;2023-07-29T14:25:17;29.97;41.93
66373;SHT30;53168;51.146;17.120;2023-07-29T14:27:58;29.64;42.11
66373;SHT30;53168;51.146;17.120;2023-07-29T14:30:41;29.35;42.53
66373;SHT30;53168;51.146;17.120;2023-07-29T14:33:22;29.09;42.84
66373;SHT30;53168;51.146;17.120;2023-07-29T14:36:21;28.97;43.27
66373;SHT30;53168;51.146;17.120;2023-07-29T14:39:00;28.94;43.67
66373;SHT30;53168;51.146;17.120;2023-07-29T14:41:45;28.89;43.83
66373;SHT30;53168;51.146;17.120;2023-07-29T14:44:27;28.78;44.15
66373;SHT30;53168;51.146;17.120;2023-07-29T14:47:10;28.64;44.29
66373;SHT30;53168;51.146;17.120;2023-07-29T14:49:47;28.50;44.67
66373;SHT30;53168;51.146;17.120;2023-07-29T14:52:23;28.37;44.95
66373;SHT30;53168;51.146;17.120;2023-07-29T14:54:57;28.19;45.21
66373;SHT30;53168;51.146;17.120;2023-07-29T14:57:31;28.05;45.32
66373;SHT30;53168;51.146;17.120;2023-07-29T15:04:04;27.86;45.98
66373;SHT30;53168;51.146;17.120;2023-07-29T15:07:13;27.80;46.24
66373;SHT30;53168;51.146;17.120;2023-07-29T15:24:58;27.74;46.44
66373;SHT30;53168;51.146;17.120;2023-07-29T15:27:32;27.76;46.60
66373;SHT30;53168;51.146;17.120;2023-07-29T15:30:08;27.79;46.76
66373;SHT30;53168;51.146;17.120;2023-07-29T15:32:46;27.76;46.68
66373;SHT30;53168;51.146;17.120;2023-07-29T15:35:23;27.68;46.69
66373;SHT30;53168;51.146;17.120;2023-07-29T15:37:57;27.61;47.04
66373;SHT30;53168;51.146;17.120;2023-07-29T15:40:30;27.55;47.23
66373;SHT30;53168;51.146;17.120;2023-07-29T15:43:04;27.46;47.33
66373;SHT30;53168;51.146;17.120;2023-07-29T15:45:38;27.41;47.51
66373;SHT30;53168;51.146;17.120;2023-07-29T15:48:11;27.35;47.74
66373;SHT30;53168;51.146;17.120;2023-07-29T15:50:49;27.29;47.96
66373;SHT30;53168;51.146;17.120;2023-07-29T15:53:23;27.20;48.28
66373;SHT30;53168;51.146;17.120;2023-07-29T15:55:57;27.09;48.55
66373;SHT30;53168;51.146;17.120;2023-07-29T15:58:31;26.98;48.68
66373;SHT30;53168;51.146;17.120;2023-07-29T16:01:06;26.85;48.87
66373;SHT30;53168;51.146;17.120;2023-07-29T16:03:40;26.76;49.25
66373;SHT30;53168;51.146;17.120;2023-07-29T16:06:17;26.64;49.58
66373;SHT30;53168;51.146;17.120;2023-07-29T16:08:54;26.52;49.74
66373;SHT30;53168;51.146;17.120;2023-07-29T16:11:30;26.41;49.85
66373;SHT30;53168;51.146;17.120;2023-07-29T16:14:04;26.35;50.12
66373;SHT30;53168;51.146;17.120;2023-07-29T16:16:38;26.31;50.38
66373;SHT30;53168;51.146;17.120;2023-07-29T16:19:17;26.28;50.59
66373;SHT30;53168;51.146;17.120;2023-07-29T16:21:55;26.28;50.87
66373;SHT30;53168;51.146;17.120;2023-07-29T16:24:32;26.28;50.80
66373;SHT30;53168;51.146;17.120;2023-07-29T16:27:07;26.34;50.89
66373;SHT30;53168;51.146;17.120;2023-07-29T16:29:41;26.48;50.97
66373;SHT30;53168;51.146;17.120;2023-07-29T16:32:17;26.65;51.07
66373;SHT30;53168;51.146;17.120;2023-07-29T16:34:52;26.77;50.96
66373;SHT30;53168;51.146;17.120;2023-07-29T16:37:27;26.81;50.92
66373;SHT30;53168;51.146;17.120;2023-07-29T16:40:09;26.83;50.77
66373;SHT30;53168;51.146;17.120;2023-07-29T16:42:50;26.77;50.59
66373;SHT30;53168;51.146;17.120;2023-07-29T16:45:26;26.69;50.67
66373;SHT30;53168;51.146;17.120;2023-07-29T16:48:01;26.59;50.68
66373;SHT30;53168;51.146;17.120;2023-07-29T16:50:35;26.41;50.69
66373;SHT30;53168;51.146;17.120;2023-07-29T16:53:12;26.23;50.21
66373;SHT30;53168;51.146;17.120;2023-07-29T16:55:47;26.08;50.51
66373;SHT30;53168;51.146;17.120;2023-07-29T16:58:21;25.98;50.84
66373;SHT30;53168;51.146;17.120;2023-07-29T17:00:55;25.88;50.91
66373;SHT30;53168;51.146;17.120;2023-07-29T17:03:30;25.78;50.89
66373;SHT30;53168;51.146;17.120;2023-07-29T17:06:04;25.67;50.88
66373;SHT30;53168;51.146;17.120;2023-07-29T17:08:38;25.59;50.99
66373;SHT30;53168;51.146;17.120;2023-07-29T17:11:12;25.52;51.04
66373;SHT30;53168;51.146;17.120;2023-07-29T17:13:47;25.45;51.22
66373;SHT30;53168;51.146;17.120;2023-07-29T17:16:21;25.38;51.23
66373;SHT30;53168;51.146;17.120;2023-07-29T17:18:55;25.34;51.43
66373;SHT30;53168;51.146;17.120;2023-07-29T17:21:29;25.29;51.54
66373;SHT30;53168;51.146;17.120;2023-07-29T17:24:06;25.23;51.67
66373;SHT30;53168;51.146;17.120;2023-07-29T17:26:41;25.14;51.78
66373;SHT30;53168;51.146;17.120;2023-07-29T17:29:15;25.05;52.02
66373;SHT30;53168;51.146;17.120;2023-07-29T17:31:51;24.96;52.16
66373;SHT30;53168;51.146;17.120;2023-07-29T17:34:25;24.89;52.35